Time;durP1;ratioP1;P1;durP2;ratioP2;P2;SDS_P1;SDS_P2;PMS_P1;PMS_P2;Temp;Humidity;BMP_temperature;BMP_pressure;BME280_temperature;BME280_humidity;BME280_pressure;Samples;Min_cycle;Max_cycle;Signal;HPM_P1;HPM_P2
2023/03/04 00:00:54;;;;;;;3.80;1.40;;;6.00;34.70;;;;;;5037108;28;20553;-69
2023/03/04 00:03:19;;;;;;;4.53;1.97;;;6.00;34.70;;;;;;5050009;28;20673;-68
2023/03/04 00:05:46;;;;;;;5.20;2.47;;;6.00;34.80;;;;;;5042924;28;20185;-69
2023/03/04 00:08:11;;;;;;;3.70;1.20;;;5.90;34.80;;;;;;5041917;28;20180;-69
2023/03/04 00:10:37;;;;;;;6.03;2.70;;;5.90;34.90;;;;;;5029859;28;20196;-69
2023/03/04 00:13:03;;;;;;;5.60;2.70;;;5.70;35.10;;;;;;5041867;28;20290;-69
2023/03/04 00:15:28;;;;;;;3.77;1.40;;;5.60;35.70;;;;;;5048309;28;20176;-69
2023/03/04 00:17:54;;;;;;;5.30;2.33;;;5.60;35.50;;;;;;5031652;28;20715;-68
2023/03/04 00:20:20;;;;;;;4.07;1.63;;;5.80;35.30;;;;;;5042034;28;20192;-69
2023/03/04 00:22:45;;;;;;;4.20;1.70;;;5.80;35.40;;;;;;5038904;28;20246;-69
2023/03/04 00:25:11;;;;;;;7.13;2.67;;;5.80;35.20;;;;;;5043835;28;20176;-69
2023/03/04 00:27:37;;;;;;;4.60;2.07;;;5.80;35.10;;;;;;5038919;28;20248;-69
2023/03/04 00:30:04;;;;;;;5.10;1.70;;;5.60;35.60;;;;;;5031102;28;20227;-68
2023/03/04 00:32:29;;;;;;;3.80;1.40;;;5.50;36.20;;;;;;5044998;28;20176;-69
2023/03/04 00:34:55;;;;;;;4.40;1.70;;;5.30;36.00;;;;;;5045334;28;20226;-69
2023/03/04 00:37:20;;;;;;;3.80;1.30;;;5.30;36.00;;;;;;5048897;28;20263;-68
2023/03/04 00:39:46;;;;;;;12.50;3.60;;;5.20;36.30;;;;;;5040646;28;20224;-69
2023/03/04 00:42:12;;;;;;;5.83;2.13;;;5.20;36.80;;;;;;5033594;28;20204;-69
2023/03/04 00:44:37;;;;;;;5.27;2.43;;;5.20;36.60;;;;;;5038493;28;20175;-69
2023/03/04 00:47:03;;;;;;;3.87;1.40;;;5.40;36.00;;;;;;5033754;28;20234;-69
2023/03/04 00:49:28;;;;;;;4.63;1.50;;;5.50;35.60;;;;;;5039983;28;20279;-69
2023/03/04 00:51:54;;;;;;;3.90;1.30;;;5.50;35.80;;;;;;5035417;28;20529;-69
2023/03/04 00:54:20;;;;;;;4.13;1.57;;;5.60;35.60;;;;;;5030801;28;20220;-69
2023/03/04 00:56:46;;;;;;;7.95;2.00;;;5.70;35.30;;;;;;5040174;28;20184;-69
2023/03/04 00:59:11;;;;;;;4.10;1.50;;;5.60;35.10;;;;;;5041183;28;20245;-69
2023/03/04 01:01:37;;;;;;;4.53;1.60;;;5.60;35.10;;;;;;5046570;28;20212;-68
2023/03/04 01:04:03;;;;;;;3.90;1.23;;;5.30;35.90;;;;;;5036588;28;20185;-69
2023/03/04 01:06:28;;;;;;;9.13;3.60;;;5.20;36.40;;;;;;5037436;28;20235;-69
2023/03/04 01:08:54;;;;;;;4.87;1.97;;;5.10;36.50;;;;;;5032199;28;20193;-70
2023/03/04 01:11:19;;;;;;;6.03;2.97;;;5.10;37.10;;;;;;5047238;28;20211;-69
2023/03/04 01:13:45;;;;;;;5.07;2.47;;;5.20;36.20;;;;;;5047479;28;20196;-69
2023/03/04 01:16:11;;;;;;;4.33;1.40;;;5.20;36.30;;;;;;5034204;28;20574;-69
2023/03/04 01:18:37;;;;;;;4.00;1.33;;;5.20;36.30;;;;;;5037441;28;20185;-69
2023/03/04 01:21:03;;;;;;;4.03;1.33;;;5.40;35.60;;;;;;5039423;28;20634;-69
2023/03/04 01:23:29;;;;;;;4.07;1.47;;;5.30;35.50;;;;;;5045221;28;20438;-67
2023/03/04 01:25:54;;;;;;;4.57;2.17;;;5.20;35.70;;;;;;5042652;28;20434;-69
2023/03/04 01:28:20;;;;;;;4.30;1.50;;;5.10;36.30;;;;;;5040260;28;20267;-68
2023/03/04 01:30:45;;;;;;;4.73;2.17;;;4.90;36.90;;;;;;5038484;28;20226;-70
2023/03/04 01:33:11;;;;;;;10.83;3.30;;;5.10;36.00;;;;;;5049403;28;20188;-69
2023/03/04 01:35:36;;;;;;;4.20;1.57;;;5.30;35.90;;;;;;5048206;28;20663;-70
2023/03/04 01:38:02;;;;;;;5.40;2.60;;;5.30;35.50;;;;;;5041662;28;20565;-69
2023/03/04 01:40:28;;;;;;;4.83;1.93;;;5.20;35.50;;;;;;5049807;28;20216;-69
2023/03/04 01:42:54;;;;;;;8.35;3.25;;;5.20;35.80;;;;;;5049204;28;20282;-69
2023/03/04 01:45:20;;;;;;;4.00;1.30;;;5.30;35.70;;;;;;5052649;28;20646;-69
2023/03/04 01:47:47;;;;;;;3.90;1.20;;;5.10;36.00;;;;;;5042928;28;20185;-70
2023/03/04 01:50:19;;;;;;;5.20;2.20;;;4.80;36.40;;;;;;5071019;22;20234;-74
2023/03/04 01:52:44;;;;;;;4.30;1.60;;;4.70;36.90;;;;;;5050467;28;20188;-74
2023/03/04 01:55:18;;;;;;;5.17;1.83;;;4.80;36.70;;;;;;5053098;28;20199;-72
2023/03/04 01:57:45;;;;;;;4.00;1.20;;;4.90;36.50;;;;;;5051378;28;20230;-71
2023/03/04 02:00:20;;;;;;;4.50;1.77;;;5.10;35.80;;;;;;5069244;28;20207;-71
2023/03/04 02:02:48;;;;;;;6.82;3.17;;;5.10;35.70;;;;;;5052131;28;20191;-71
2023/03/04 02:05:14;;;;;;;4.00;1.20;;;4.90;36.40;;;;;;5073293;28;20203;-73
2023/03/04 02:07:41;;;;;;;5.43;1.90;;;4.90;36.40;;;;;;5073704;28;20214;-71
2023/03/04 02:10:08;;;;;;;4.93;1.77;;;4.90;36.00;;;;;;5072659;28;20796;-72
2023/03/04 02:12:33;;;;;;;4.65;1.88;;;4.80;36.40;;;;;;5072204;28;20183;-71
2023/03/04 02:14:59;;;;;;;4.50;1.50;;;4.90;35.90;;;;;;5048506;28;20720;-71
2023/03/04 02:17:26;;;;;;;4.10;1.30;;;5.00;36.00;;;;;;5071675;28;20662;-71
2023/03/04 02:20:05;;;;;;;4.65;2.15;;;5.00;35.90;;;;;;5071586;28;20199;-71
2023/03/04 02:22:34;;;;;;;5.25;2.28;;;4.70;36.40;;;;;;5071120;28;20268;-70
2023/03/04 02:25:06;;;;;;;6.80;2.40;;;4.60;37.00;;;;;;5072264;28;20226;-71
2023/03/04 02:27:31;;;;;;;4.30;1.45;;;4.80;36.40;;;;;;5072271;28;20175;-71
2023/03/04 02:29:57;;;;;;;4.80;1.90;;;4.90;36.30;;;;;;5071088;28;20272;-71
2023/03/04 02:32:23;;;;;;;4.13;1.20;;;5.00;35.90;;;;;;5071912;28;20720;-71
2023/03/04 02:34:50;;;;;;;4.13;1.30;;;4.80;36.20;;;;;;5071398;28;20664;-71
2023/03/04 02:37:17;;;;;;;4.45;1.30;;;4.50;37.00;;;;;;5070949;28;20187;-70
2023/03/04 02:39:45;;;;;;;7.03;2.75;;;4.40;37.30;;;;;;5070834;28;20229;-71
2023/03/04 02:42:11;;;;;;;4.88;1.52;;;4.40;37.40;;;;;;5071602;28;20666;-71
2023/03/04 02:44:45;;;;;;;6.35;2.42;;;4.50;37.40;;;;;;5071066;28;20191;-71
2023/03/04 02:47:12;;;;;;;5.65;1.73;;;4.70;36.80;;;;;;5070365;28;20172;-71
2023/03/04 02:49:40;;;;;;;6.20;2.05;;;4.90;36.10;;;;;;5068206;28;20585;-71
2023/03/04 02:52:16;;;;;;;4.70;1.77;;;4.80;35.90;;;;;;5069697;28;20183;-72
2023/03/04 02:54:41;;;;;;;4.60;1.60;;;4.80;36.00;;;;;;5068350;28;20191;-74
2023/03/04 02:57:09;;;;;;;4.30;1.33;;;4.90;35.80;;;;;;5072366;28;20174;-72
2023/03/04 02:59:36;;;;;;;4.45;1.40;;;4.50;36.50;;;;;;5054181;28;20653;-72
2023/03/04 03:02:02;;;;;;;5.50;2.63;;;4.40;37.10;;;;;;5070199;28;20199;-72
2023/03/04 03:04:28;;;;;;;5.40;1.90;;;4.30;37.30;;;;;;5067624;28;20172;-72
2023/03/04 03:06:54;;;;;;;7.33;2.83;;;4.40;37.40;;;;;;5070129;28;20888;-73
2023/03/04 03:09:20;;;;;;;4.80;1.70;;;4.50;36.50;;;;;;5070242;28;20477;-73
2023/03/04 03:11:45;;;;;;;4.60;1.60;;;4.40;36.70;;;;;;5052457;28;20602;-73
2023/03/04 03:14:11;;;;;;;4.90;1.87;;;4.30;37.30;;;;;;5065492;28;20516;-72
2023/03/04 03:16:37;;;;;;;4.37;1.30;;;4.60;36.50;;;;;;5069917;28;20195;-72
2023/03/04 03:19:02;;;;;;;4.60;1.60;;;4.60;36.30;;;;;;5069955;28;20207;-71
2023/03/04 03:21:28;;;;;;;7.47;2.97;;;4.60;36.40;;;;;;5068235;28;20203;-73
2023/03/04 03:23:54;;;;;;;4.80;1.90;;;4.50;36.20;;;;;;5063299;28;20175;-73
2023/03/04 03:26:19;;;;;;;4.67;1.60;;;4.50;36.50;;;;;;5065283;28;20175;-73
2023/03/04 03:28:45;;;;;;;4.70;1.60;;;4.60;36.10;;;;;;5068995;28;20211;-73
2023/03/04 03:31:10;;;;;;;4.40;1.30;;;4.40;36.40;;;;;;5071686;28;20211;-74
2023/03/04 03:33:36;;;;;;;4.40;1.30;;;4.40;36.60;;;;;;5069267;28;20187;-74
2023/03/04 03:36:02;;;;;;;7.60;1.77;;;4.40;37.00;;;;;;5063374;28;20183;-74
2023/03/04 03:38:27;;;;;;;6.93;2.33;;;4.50;36.00;;;;;;5068181;28;20568;-73
2023/03/04 03:40:53;;;;;;;7.00;2.20;;;4.40;36.50;;;;;;5066212;28;20517;-73
2023/03/04 03:43:19;;;;;;;5.20;2.07;;;4.60;36.00;;;;;;5069046;28;20183;-73
2023/03/04 03:45:44;;;;;;;6.80;2.27;;;4.30;36.40;;;;;;5068670;28;20172;-73
2023/03/04 03:48:10;;;;;;;4.40;1.30;;;4.30;36.20;;;;;;5068337;28;20183;-73
2023/03/04 03:50:35;;;;;;;5.67;2.03;;;4.30;36.30;;;;;;5070639;28;20254;-71
2023/03/04 03:53:02;;;;;;;4.60;1.60;;;4.20;36.80;;;;;;5069100;28;20183;-73
2023/03/04 03:55:27;;;;;;;5.25;1.73;;;4.30;37.10;;;;;;5071409;28;20210;-73
2023/03/04 03:57:53;;;;;;;14.33;4.80;;;4.10;36.80;;;;;;5066815;28;20226;-72
2023/03/04 04:00:19;;;;;;;4.47;1.30;;;4.20;36.80;;;;;;5069211;28;21765;-73
2023/03/04 04:02:45;;;;;;;4.80;1.60;;;4.30;36.00;;;;;;5067945;28;20364;-73
2023/03/04 04:05:11;;;;;;;5.67;2.20;;;4.10;36.50;;;;;;5069942;28;20175;-73
2023/03/04 04:07:37;;;;;;;5.05;1.63;;;4.20;36.70;;;;;;5067061;28;20237;-71
2023/03/04 04:10:04;;;;;;;4.43;1.27;;;4.20;36.40;;;;;;5067194;28;20249;-73
2023/03/04 04:12:30;;;;;;;7.50;3.63;;;4.30;36.40;;;;;;5067264;28;20429;-72
2023/03/04 04:14:56;;;;;;;4.50;1.30;;;4.20;36.40;;;;;;5067534;28;20184;-72
2023/03/04 04:17:21;;;;;;;4.50;1.20;;;4.00;37.80;;;;;;5070303;28;20179;-73
2023/03/04 04:19:47;;;;;;;4.60;1.40;;;4.10;37.10;;;;;;5070164;28;20590;-73
2023/03/04 04:22:16;;;;;;;4.50;1.20;;;4.10;36.50;;;;;;5069408;28;20194;-72
2023/03/04 04:24:41;;;;;;;4.90;1.70;;;4.20;36.50;;;;;;5068922;28;20652;-73
2023/03/04 04:27:07;;;;;;;7.30;2.37;;;4.20;36.60;;;;;;5069049;28;20252;-73
2023/03/04 04:29:33;;;;;;;4.70;1.40;;;4.30;36.30;;;;;;5069436;28;20288;-73
2023/03/04 04:31:59;;;;;;;5.30;1.77;;;4.30;36.10;;;;;;5070515;28;20431;-73
2023/03/04 04:34:25;;;;;;;4.50;1.23;;;4.30;36.10;;;;;;5068081;28;20179;-72
2023/03/04 04:36:51;;;;;;;6.13;2.55;;;4.00;36.80;;;;;;5070444;28;20594;-73
2023/03/04 04:39:17;;;;;;;4.63;1.40;;;3.80;37.10;;;;;;5069610;28;20268;-73
2023/03/04 04:41:44;;;;;;;5.97;2.00;;;3.80;37.20;;;;;;5069902;28;20203;-73
2023/03/04 04:44:10;;;;;;;4.80;1.50;;;3.80;37.20;;;;;;5067957;28;20657;-73
2023/03/04 04:46:36;;;;;;;5.07;1.67;;;3.90;36.90;;;;;;5070549;28;20258;-73
2023/03/04 04:49:03;;;;;;;6.73;2.83;;;3.80;37.90;;;;;;5069896;28;20289;-72
2023/03/04 04:51:28;;;;;;;4.68;1.30;;;3.80;37.20;;;;;;5069140;28;20429;-73
2023/03/04 04:53:54;;;;;;;5.53;1.93;;;3.70;37.10;;;;;;5068777;28;20588;-72
2023/03/04 04:56:25;;;;;;;4.53;1.20;;;3.60;37.10;;;;;;5069608;28;20646;-73
2023/03/04 04:58:50;;;;;;;5.18;1.73;;;3.90;36.50;;;;;;5069437;28;20256;-73
2023/03/04 05:01:16;;;;;;;4.80;1.60;;;3.80;36.40;;;;;;5069158;28;20202;-73
2023/03/04 05:03:42;;;;;;;4.70;1.40;;;3.70;37.10;;;;;;5072129;28;20433;-74
2023/03/04 05:06:10;;;;;;;7.23;2.27;;;3.80;36.60;;;;;;5072199;28;20167;-73
2023/03/04 05:08:36;;;;;;;4.72;1.40;;;3.70;36.90;;;;;;5071162;28;20709;-73
2023/03/04 05:11:03;;;;;;;5.67;1.80;;;3.70;36.80;;;;;;5071999;28;20262;-72
2023/03/04 05:13:28;;;;;;;5.80;2.50;;;3.70;37.00;;;;;;5070212;28;20437;-73
2023/03/04 05:15:55;;;;;;;7.90;2.90;;;3.70;36.80;;;;;;5072735;28;20179;-74
2023/03/04 05:18:22;;;;;;;5.10;1.60;;;3.90;37.00;;;;;;5065288;28;20682;-73
2023/03/04 05:20:56;;;;;;;8.70;1.77;;;4.00;36.00;;;;;;5054578;28;20179;-74
2023/03/04 05:23:22;;;;;;;6.50;2.97;;;4.00;36.10;;;;;;5066031;28;20178;-72
2023/03/04 05:25:48;;;;;;;5.05;1.75;;;4.00;36.00;;;;;;5068457;28;20273;-73
2023/03/04 05:28:14;;;;;;;6.33;2.50;;;4.00;35.90;;;;;;5069910;28;20250;-72
2023/03/04 05:30:41;;;;;;;5.80;1.95;;;4.30;36.00;;;;;;5072717;28;20183;-71
2023/03/04 05:33:09;;;;;;;4.65;1.30;;;4.10;36.70;;;;;;5071608;28;20229;-73
2023/03/04 05:35:36;;;;;;;7.25;3.15;;;4.00;35.80;;;;;;5068163;28;20202;-73
2023/03/04 05:38:04;;;;;;;5.90;2.10;;;3.90;36.20;;;;;;5071952;28;20213;-73
2023/03/04 05:40:30;;;;;;;4.90;1.50;;;3.80;36.00;;;;;;5073771;28;20616;-73
2023/03/04 05:42:56;;;;;;;6.60;2.27;;;3.60;36.50;;;;;;5072530;28;20223;-73
2023/03/04 05:45:22;;;;;;;6.33;2.07;;;3.50;37.00;;;;;;5072905;28;20433;-73
2023/03/04 05:47:48;;;;;;;5.80;2.63;;;3.30;37.70;;;;;;5072060;28;20417;-73
2023/03/04 05:50:13;;;;;;;4.60;1.13;;;3.50;37.10;;;;;;5072640;28;20215;-73
2023/03/04 05:52:39;;;;;;;4.97;1.67;;;3.50;37.00;;;;;;5073398;28;20649;-73
2023/03/04 05:55:05;;;;;;;4.60;1.17;;;3.70;36.40;;;;;;5073666;28;20210;-72
2023/03/04 05:57:30;;;;;;;5.00;1.52;;;3.80;35.90;;;;;;5074859;28;20187;-70
2023/03/04 05:59:56;;;;;;;5.73;2.07;;;3.80;35.80;;;;;;5069445;28;20222;-73
2023/03/04 06:02:22;;;;;;;4.60;1.20;;;3.60;36.30;;;;;;5072717;28;20621;-73
2023/03/04 06:04:47;;;;;;;4.77;1.40;;;3.50;36.80;;;;;;5072383;28;20579;-73
2023/03/04 06:07:13;;;;;;;4.63;1.17;;;3.30;36.80;;;;;;5073028;28;20668;-72
2023/03/04 06:09:38;;;;;;;4.90;1.53;;;3.20;37.20;;;;;;5068235;28;20199;-74
2023/03/04 06:12:04;;;;;;;4.80;1.40;;;3.40;36.70;;;;;;5071291;28;20187;-73
2023/03/04 06:14:29;;;;;;;5.10;1.73;;;3.40;36.60;;;;;;5069937;28;20214;-73
2023/03/04 06:16:55;;;;;;;5.00;1.70;;;3.40;36.90;;;;;;5064547;28;20175;-73
2023/03/04 06:19:21;;;;;;;4.80;1.30;;;3.30;37.40;;;;;;5070051;28;20242;-73
2023/03/04 06:21:46;;;;;;;5.40;1.80;;;3.20;37.70;;;;;;5069884;28;20209;-73
2023/03/04 06:24:12;;;;;;;4.90;1.40;;;3.30;37.70;;;;;;5071672;28;20237;-73
2023/03/04 06:26:37;;;;;;;4.80;1.40;;;3.30;37.50;;;;;;5071419;28;20664;-73
2023/03/04 06:29:05;;;;;;;14.00;4.50;;;3.30;37.30;;;;;;5070036;28;20256;-73
2023/03/04 06:31:30;;;;;;;5.85;2.25;;;3.50;36.60;;;;;;5068226;28;20543;-73
2023/03/04 06:33:56;;;;;;;6.07;1.77;;;3.60;36.20;;;;;;5071363;28;20244;-73
2023/03/04 06:36:21;;;;;;;4.77;1.30;;;3.50;36.90;;;;;;5071313;28;20186;-73
2023/03/04 06:38:47;;;;;;;6.07;1.90;;;3.40;36.90;;;;;;5069217;28;20689;-73
2023/03/04 06:41:13;;;;;;;5.00;1.43;;;3.30;37.30;;;;;;5069299;28;20209;-73
2023/03/04 06:43:38;;;;;;;6.43;1.90;;;3.50;37.20;;;;;;5070115;28;20557;-73
2023/03/04 06:46:06;;;;;;;5.10;1.50;;;3.40;37.10;;;;;;5052467;28;20441;-73
2023/03/04 06:48:31;;;;;;;7.53;2.90;;;3.40;38.20;;;;;;5066490;28;20218;-73
2023/03/04 06:50:57;;;;;;;6.03;2.03;;;3.50;37.90;;;;;;5068442;28;20187;-73
2023/03/04 06:53:22;;;;;;;8.50;2.90;;;3.60;38.50;;;;;;5066646;28;20258;-73
2023/03/04 06:55:49;;;;;;;4.97;1.20;;;3.80;37.40;;;;;;5071095;28;20240;-73
2023/03/04 06:58:16;;;;;;;6.55;1.75;;;3.80;37.40;;;;;;5069820;28;20593;-72
2023/03/04 07:00:42;;;;;;;5.38;1.70;;;3.80;37.60;;;;;;5069926;28;20180;-72
2023/03/04 07:03:10;;;;;;;5.20;1.50;;;3.90;36.70;;;;;;5067239;28;20541;-73
2023/03/04 07:05:35;;;;;;;5.90;1.73;;;4.00;36.50;;;;;;5067544;28;20196;-73
2023/03/04 07:08:01;;;;;;;10.73;3.57;;;4.00;36.80;;;;;;5066426;28;20179;-72
2023/03/04 07:10:26;;;;;;;6.60;2.30;;;4.10;36.90;;;;;;5071617;28;20674;-73
2023/03/04 07:12:52;;;;;;;7.40;2.70;;;4.20;36.90;;;;;;5068449;28;20176;-73
2023/03/04 07:15:18;;;;;;;7.20;2.63;;;4.20;36.70;;;;;;5065333;28;20486;-73
2023/03/04 07:17:43;;;;;;;5.30;1.60;;;4.20;36.90;;;;;;5063327;28;20179;-73
2023/03/04 07:20:09;;;;;;;5.47;1.87;;;4.20;37.00;;;;;;5050047;28;20326;-72
2023/03/04 07:22:35;;;;;;;4.95;1.30;;;4.30;37.10;;;;;;5069850;28;20214;-72
2023/03/04 07:25:00;;;;;;;4.87;1.20;;;4.40;36.50;;;;;;5066803;28;20258;-76
2023/03/04 07:27:26;;;;;;;5.10;1.53;;;4.40;37.10;;;;;;5070246;28;20202;-76
2023/03/04 07:29:52;;;;;;;4.90;1.30;;;4.10;38.00;;;;;;5074107;28;20203;-78
2023/03/04 07:32:17;;;;;;;6.43;2.07;;;3.90;38.60;;;;;;5073547;28;20176;-78
2023/03/04 07:34:43;;;;;;;5.43;2.00;;;3.90;39.20;;;;;;5070504;28;20184;-79
2023/03/04 07:37:09;;;;;;;5.97;2.23;;;4.10;39.40;;;;;;5054748;28;20179;-73
2023/03/04 07:39:34;;;;;;;4.80;1.40;;;4.30;38.70;;;;;;5072213;28;20236;-73
2023/03/04 07:42:00;;;;;;;8.47;3.80;;;4.40;38.70;;;;;;5064152;28;20243;-72
2023/03/04 07:44:26;;;;;;;5.03;2.03;;;4.60;38.10;;;;;;5069854;28;20179;-70
2023/03/04 07:46:51;;;;;;;5.80;1.60;;;4.80;38.30;;;;;;5070965;28;20236;-70
2023/03/04 07:49:17;;;;;;;4.20;1.23;;;5.00;37.20;;;;;;5071344;28;20214;-71
2023/03/04 07:51:42;;;;;;;5.60;2.03;;;5.20;36.60;;;;;;5070922;28;20186;-70
2023/03/04 07:54:08;;;;;;;4.27;1.47;;;5.10;36.50;;;;;;5069086;28;20175;-71
2023/03/04 07:56:34;;;;;;;5.97;2.58;;;5.30;36.40;;;;;;5068879;28;20233;-72
2023/03/04 07:59:00;;;;;;;4.10;1.50;;;5.50;35.90;;;;;;5066114;28;20235;-72
2023/03/04 08:01:29;;;;;;;3.85;1.35;;;5.60;35.40;;;;;;5068872;28;20560;-72
2023/03/04 08:03:54;;;;;;;4.78;2.08;;;5.60;35.80;;;;;;5064909;28;20266;-72
2023/03/04 08:06:21;;;;;;;4.43;1.80;;;5.80;35.50;;;;;;5071390;28;20761;-72
2023/03/04 08:08:48;;;;;;;25.25;3.25;;;5.90;35.40;;;;;;5070053;28;20203;-70
2023/03/04 08:11:22;;;;;;;5.63;3.05;;;5.90;35.60;;;;;;5070459;28;20260;-73
2023/03/04 08:13:48;;;;;;;3.92;1.63;;;5.90;35.40;;;;;;5065354;28;20183;-72
2023/03/04 08:16:17;;;;;;;3.55;1.30;;;5.80;35.80;;;;;;5064591;28;20198;-72
2023/03/04 08:18:47;;;;;;;5.82;2.30;;;5.80;35.90;;;;;;5063710;28;20677;-72
2023/03/04 08:21:15;;;;;;;4.43;2.15;;;5.70;36.00;;;;;;5066300;28;20210;-71
2023/03/04 08:23:41;;;;;;;4.10;2.03;;;5.60;36.20;;;;;;5066193;28;20179;-72
2023/03/04 08:26:20;;;;;;;3.58;1.30;;;5.70;36.30;;;;;;5070363;28;20256;-72
2023/03/04 08:28:46;;;;;;;3.78;1.50;;;5.80;36.00;;;;;;5065227;28;20282;-73
2023/03/04 08:31:13;;;;;;;4.28;1.88;;;6.10;36.40;;;;;;5068904;28;20190;-72
2023/03/04 08:33:39;;;;;;;4.35;2.15;;;6.10;35.10;;;;;;5068542;28;20190;-72
2023/03/04 08:36:05;;;;;;;4.23;1.80;;;6.10;35.30;;;;;;5066777;28;20561;-72
2023/03/04 08:38:31;;;;;;;8.15;2.03;;;6.20;35.10;;;;;;5071509;28;20281;-72
2023/03/04 08:40:57;;;;;;;3.83;1.57;;;5.80;35.80;;;;;;5073726;28;20749;-72
2023/03/04 08:43:24;;;;;;;5.35;2.05;;;4.80;38.00;;;;;;5073783;28;20693;-72
2023/03/04 08:45:50;;;;;;;3.40;1.20;;;4.70;39.40;;;;;;5071516;28;20187;-72
2023/03/04 08:48:17;;;;;;;5.03;2.38;;;4.60;40.00;;;;;;5073703;28;20167;-72
2023/03/04 08:50:44;;;;;;;4.20;1.73;;;5.30;38.80;;;;;;5075195;28;20570;-73
2023/03/04 08:53:10;;;;;;;4.10;1.85;;;5.90;37.20;;;;;;5073594;28;20175;-72
2023/03/04 08:55:40;;;;;;;3.50;1.30;;;6.40;35.50;;;;;;5074047;28;20191;-72
2023/03/04 08:58:06;;;;;;;4.22;1.63;;;6.80;34.50;;;;;;5056142;28;20197;-72
2023/03/04 09:00:36;;;;;;;3.75;1.40;;;7.10;33.20;;;;;;5072752;28;20273;-72
2023/03/04 09:03:03;;;;;;;4.60;2.28;;;7.30;32.90;;;;;;5072609;28;20199;-73
2023/03/04 09:05:29;;;;;;;3.33;1.20;;;7.20;33.50;;;;;;5071787;28;20184;-72
2023/03/04 09:07:55;;;;;;;6.18;3.08;;;6.50;35.20;;;;;;5074044;28;20258;-72
2023/03/04 09:10:21;;;;;;;3.60;1.50;;;6.30;35.30;;;;;;5069472;28;20220;-72
2023/03/04 09:12:47;;;;;;;3.80;1.90;;;6.80;34.20;;;;;;5069681;28;20465;-71
2023/03/04 09:15:13;;;;;;;3.37;1.33;;;7.00;33.10;;;;;;5067759;28;20182;-72
2023/03/04 09:17:39;;;;;;;3.80;1.85;;;7.10;33.30;;;;;;5071720;28;20183;-72
2023/03/04 09:20:10;;;;;;;3.85;1.83;;;6.70;33.50;;;;;;5071818;28;20211;-72
2023/03/04 09:22:37;;;;;;;5.60;1.90;;;6.80;33.90;;;;;;5070695;28;20202;-72
2023/03/04 09:25:03;;;;;;;3.60;1.70;;;6.70;34.20;;;;;;5068345;28;20187;-70
2023/03/04 09:27:29;;;;;;;4.05;1.70;;;6.00;35.40;;;;;;5065484;28;20182;-73
2023/03/04 09:29:55;;;;;;;3.40;1.60;;;5.40;37.40;;;;;;5069201;28;20203;-72
2023/03/04 09:32:20;;;;;;;3.10;1.30;;;4.90;38.70;;;;;;5066463;28;20176;-71
2023/03/04 09:34:46;;;;;;;3.23;1.40;;;5.20;38.40;;;;;;5069253;28;20201;-72
2023/03/04 09:37:12;;;;;;;3.30;1.50;;;5.30;38.90;;;;;;5066992;28;20249;-74
2023/03/04 09:39:37;;;;;;;3.00;1.30;;;4.90;38.50;;;;;;5069160;28;20291;-74
2023/03/04 09:42:06;;;;;;;3.10;1.20;;;4.70;40.00;;;;;;5071352;28;20236;-76
2023/03/04 09:44:35;;;;;;;3.13;1.20;;;5.10;39.90;;;;;;5073840;28;20183;-74
2023/03/04 09:47:04;;;;;;;3.20;1.38;;;5.70;37.60;;;;;;5073777;28;20175;-75
2023/03/04 09:49:30;;;;;;;8.15;1.90;;;6.10;37.30;;;;;;5046477;28;21964;-72
2023/03/04 09:52:13;;;;;;;3.30;1.40;;;6.10;36.40;;;;;;5064341;28;20248;-75
2023/03/04 09:55:03;;;;;;;3.72;1.77;;;6.30;35.50;;;;;;5058632;28;20187;-76
2023/03/04 09:57:39;;;;;;;3.60;1.77;;;6.40;35.10;;;;;;5072840;28;20187;-75
2023/03/04 10:00:22;;;;;;;5.93;1.67;;;6.40;34.70;;;;;;5068866;28;20211;-75
2023/03/04 10:03:12;;;;;;;3.10;1.30;;;5.60;36.70;;;;;;5065680;28;20210;-74
2023/03/04 10:05:59;;;;;;;3.20;1.30;;;4.80;38.80;;;;;;5067312;28;20175;-73
2023/03/04 10:09:06;;;;;;;4.55;1.80;;;4.80;39.90;;;;;;5067616;28;20209;-73
2023/03/04 10:11:37;;;;;;;2.90;1.10;;;4.90;39.40;;;;;;4972255;28;20683;-72
2023/03/04 10:14:20;;;;;;;2.95;1.20;;;4.90;38.70;;;;;;4973378;28;20189;-71
2023/03/04 10:16:55;;;;;;;3.20;1.30;;;5.40;38.00;;;;;;4972267;28;20191;-73
2023/03/04 10:19:29;;;;;;;4.38;2.10;;;5.60;38.10;;;;;;4963333;28;20214;-72
2023/03/04 10:21:55;;;;;;;3.60;1.80;;;6.40;35.90;;;;;;4967287;28;20205;-73
2023/03/04 10:24:27;;;;;;;8.60;3.50;;;6.50;34.50;;;;;;4969160;28;20210;-71
2023/03/04 10:27:00;;;;;;;5.05;2.67;;;6.30;35.60;;;;;;4972364;28;20529;-74
2023/03/04 10:29:29;;;;;;;3.30;1.30;;;6.70;34.70;;;;;;4969545;28;20684;-73
2023/03/04 10:31:55;;;;;;;3.30;1.27;;;6.80;34.90;;;;;;4968606;28;20766;-74
2023/03/04 10:34:22;;;;;;;3.25;1.15;;;7.30;34.10;;;;;;4981649;28;20281;-74
2023/03/04 10:37:00;;;;;;;3.20;1.20;;;7.10;33.50;;;;;;4972152;28;20588;-73
2023/03/04 10:39:33;;;;;;;3.10;1.10;;;7.10;33.60;;;;;;4971178;28;20222;-72
2023/03/04 10:42:12;;;;;;;3.70;1.60;;;7.10;32.80;;;;;;4963410;28;20285;-74
2023/03/04 10:44:57;;;;;;;3.25;1.25;;;6.80;33.20;;;;;;4980740;28;20203;-73
2023/03/04 10:47:28;;;;;;;3.20;1.25;;;6.80;33.80;;;;;;5074224;28;20179;-75
2023/03/04 10:50:02;;;;;;;3.30;1.30;;;7.00;33.70;;;;;;5064574;28;20752;-72
2023/03/04 10:52:38;;;;;;;3.20;1.33;;;7.20;32.90;;;;;;5062398;28;20834;-71
2023/03/04 10:55:14;;;;;;;3.30;1.50;;;7.00;33.90;;;;;;5065865;28;20211;-72
2023/03/04 10:57:41;;;;;;;3.08;1.20;;;6.40;34.70;;;;;;5076229;28;20653;-73
2023/03/04 11:00:16;;;;;;;3.10;1.40;;;6.50;34.50;;;;;;5064760;28;20211;-74
2023/03/04 11:02:42;;;;;;;4.65;1.63;;;6.80;34.90;;;;;;5066058;28;20693;-73
2023/03/04 11:05:16;;;;;;;3.10;1.20;;;7.00;33.10;;;;;;5071962;28;20264;-74
2023/03/04 11:07:45;;;;;;;3.30;1.40;;;6.70;34.10;;;;;;5063676;28;20189;-74
2023/03/04 11:10:38;;;;;;;3.00;1.10;;;6.40;34.50;;;;;;5070723;28;20241;-73
2023/03/04 11:13:10;;;;;;;5.78;2.47;;;6.60;34.70;;;;;;5067611;28;20676;-73
2023/03/04 11:16:00;;;;;;;3.00;1.20;;;6.80;34.10;;;;;;5053340;28;20276;-73
2023/03/04 11:18:41;;;;;;;3.10;1.20;;;6.60;34.50;;;;;;5070711;28;20512;-73
2023/03/04 11:21:12;;;;;;;3.15;1.15;;;7.00;33.40;;;;;;5069990;28;20186;-72
2023/03/04 11:23:46;;;;;;;4.18;1.30;;;7.20;33.30;;;;;;5063855;28;20178;-73
2023/03/04 11:26:18;;;;;;;3.10;1.20;;;7.20;33.20;;;;;;5070531;28;20225;-73
2023/03/04 11:28:46;;;;;;;3.28;1.35;;;7.00;33.60;;;;;;5069559;28;20206;-73
2023/03/04 11:31:16;;;;;;;3.13;1.20;;;7.50;32.60;;;;;;5068046;28;20182;-73
2023/03/04 11:33:52;;;;;;;3.70;1.40;;;5.10;31.20;;;;;;5063300;28;20642;-73
2023/03/04 11:36:28;;;;;;;3.00;1.10;;;6.90;33.80;;;;;;5069580;28;20569;-73
2023/03/04 11:38:55;;;;;;;5.15;1.77;;;7.00;33.70;;;;;;5068796;28;20202;-73
2023/03/04 11:41:29;;;;;;;3.15;1.30;;;7.50;33.00;;;;;;5071194;28;20187;-73
2023/03/04 11:43:55;;;;;;;3.05;1.27;;;7.60;33.20;;;;;;5068014;28;20179;-73
2023/03/04 11:46:20;;;;;;;3.17;1.40;;;7.80;32.70;;;;;;5070301;28;20186;-73
2023/03/04 11:49:11;;;;;;;3.43;1.60;;;7.80;31.40;;;;;;5051331;28;20697;-73
2023/03/04 11:51:54;;;;;;;3.63;1.70;;;6.90;33.10;;;;;;5066826;28;20534;-73
2023/03/04 11:54:58;;;;;;;3.13;1.30;;;6.70;34.30;;;;;;5052280;28;20248;-73
2023/03/04 11:57:33;;;;;;;3.00;1.27;;;7.30;33.10;;;;;;5056950;28;20187;-73
2023/03/04 12:00:20;;;;;;;3.80;2.05;;;7.50;31.70;;;;;;5050753;28;20211;-73
2023/03/04 12:03:09;;;;;;;3.10;1.20;;;7.50;31.80;;;;;;5065577;28;20203;-73
2023/03/04 12:06:03;;;;;;;3.00;1.30;;;7.40;32.60;;;;;;5071505;28;20180;-73
2023/03/04 12:08:35;;;;;;;3.10;1.30;;;7.60;32.60;;;;;;5070285;28;20689;-73
2023/03/04 12:11:03;;;;;;;3.10;1.30;;;6.50;34.20;;;;;;5070383;28;20175;-73
2023/03/04 12:13:54;;;;;;;3.00;1.20;;;7.10;33.50;;;;;;5068581;28;20658;-74
2023/03/04 12:16:38;;;;;;;2.90;1.10;;;7.50;32.50;;;;;;5071549;28;20170;-73
2023/03/04 12:19:03;;;;;;;3.20;1.48;;;8.40;31.00;;;;;;5068012;28;20576;-73
2023/03/04 12:22:06;;;;;;;2.90;1.20;;;8.00;30.80;;;;;;5062577;28;20220;-70
2023/03/04 12:24:56;;;;;;;3.53;2.03;;;7.30;32.40;;;;;;5060377;28;20183;-72
2023/03/04 12:27:59;;;;;;;3.22;1.35;;;8.00;31.60;;;;;;5066750;28;20183;-71
2023/03/04 12:30:50;;;;;;;3.83;1.52;;;7.80;31.90;;;;;;5062124;28;20329;-72
2023/03/04 12:33:33;;;;;;;2.90;1.30;;;8.00;32.20;;;;;;5061010;28;20328;-73
2023/03/04 12:36:34;;;;;;;2.60;1.10;;;8.50;30.00;;;;;;5063391;28;20193;-71
2023/03/04 12:39:32;;;;;;;2.58;1.10;;;8.90;29.60;;;;;;5048925;28;20219;-71
2023/03/04 12:42:17;;;;;;;5.57;1.52;;;9.00;28.80;;;;;;5067104;28;20800;-72
2023/03/04 12:44:46;;;;;;;3.40;1.77;;;9.10;28.90;;;;;;5066325;28;20248;-72
2023/03/04 12:47:40;;;;;;;2.40;1.15;;;9.20;28.80;;;;;;5065332;28;20678;-74
2023/03/04 12:50:29;;;;;;;2.42;1.23;;;9.50;28.40;;;;;;5061140;28;20209;-68
2023/03/04 12:53:12;;;;;;;2.40;1.20;;;10.10;26.30;;;;;;5067537;28;20277;-74
2023/03/04 12:55:43;;;;;;;2.63;1.45;;;10.40;26.30;;;;;;5063835;28;20197;-74
2023/03/04 12:58:19;;;;;;;2.58;1.75;;;10.10;26.80;;;;;;5069099;28;20285;-74
2023/03/04 13:01:01;;;;;;;3.00;1.52;;;9.30;27.80;;;;;;5062324;28;20182;-73
2023/03/04 13:03:26;;;;;;;4.57;2.05;;;8.60;30.00;;;;;;5065453;28;20186;-78
2023/03/04 13:06:02;;;;;;;3.83;1.97;;;8.80;28.60;;;;;;5065856;28;20182;-73
2023/03/04 13:08:44;;;;;;;2.40;1.45;;;8.80;28.10;;;;;;5064290;28;20218;-76